sensor_id;sensor_type;location;lat;lon;timestamp;temperature;humidity
9450;DHT22;4763;48.370;10.874;2024-02-26T00:01:54;3.70;99.90
9450;DHT22;4763;48.370;10.874;2024-02-26T00:04:30;3.70;99.90
9450;DHT22;4763;48.370;10.874;2024-02-26T00:06:57;3.70;99.90
9450;DHT22;4763;48.370;10.874;2024-02-26T00:09:34;3.60;99.90
9450;DHT22;4763;48.370;10.874;2024-02-26T00:12:05;3.60;99.90
9450;DHT22;4763;48.370;10.874;2024-02-26T00:14:38;3.50;99.90
9450;DHT22;4763;48.370;10.874;2024-02-26T00:17:08;3.50;99.90
9450;DHT22;4763;48.370;10.874;2024-02-26T00:20:07;3.50;99.90
9450;DHT22;4763;48.370;10.874;2024-02-26T00:23:38;3.40;99.90
9450;DHT22;4763;48.370;10.874;2024-02-26T00:25:50;3.50;99.90
9450;DHT22;4763;48.370;10.874;2024-02-26T00:31:05;3.50;99.90
9450;DHT22;4763;48.370;10.874;2024-02-26T00:33:45;3.50;99.90
9450;DHT22;4763;48.370;10.874;2024-02-26T00:36:13;3.50;99.90
9450;DHT22;4763;48.370;10.874;2024-02-26T00:38:48;3.40;99.90
9450;DHT22;4763;48.370;10.874;2024-02-26T00:41:27;3.40;99.90
9450;DHT22;4763;48.370;10.874;2024-02-26T00:43:56;3.40;99.90
9450;DHT22;4763;48.370;10.874;2024-02-26T00:46:23;3.40;99.90
9450;DHT22;4763;48.370;10.874;2024-02-26T00:48:57;3.30;99.90
9450;DHT22;4763;48.370;10.874;2024-02-26T00:51:24;3.30;99.90
9450;DHT22;4763;48.370;10.874;2024-02-26T00:57:20;3.30;99.90
9450;DHT22;4763;48.370;10.874;2024-02-26T00:59:48;3.30;99.90
9450;DHT22;4763;48.370;10.874;2024-02-26T01:02:16;3.20;99.90
9450;DHT22;4763;48.370;10.874;2024-02-26T01:04:45;3.30;99.90
9450;DHT22;4763;48.370;10.874;2024-02-26T01:07:13;3.30;99.90
9450;DHT22;4763;48.370;10.874;2024-02-26T01:12:58;3.30;99.90
9450;DHT22;4763;48.370;10.874;2024-02-26T01:15:45;3.40;99.90
9450;DHT22;4763;48.370;10.874;2024-02-26T01:18:12;3.40;99.90
9450;DHT22;4763;48.370;10.874;2024-02-26T01:20:41;3.40;99.90
9450;DHT22;4763;48.370;10.874;2024-02-26T01:23:17;3.40;99.90
9450;DHT22;4763;48.370;10.874;2024-02-26T01:25:44;3.40;99.90
9450;DHT22;4763;48.370;10.874;2024-02-26T01:28:13;3.40;99.90
9450;DHT22;4763;48.370;10.874;2024-02-26T01:30:49;3.30;99.90
9450;DHT22;4763;48.370;10.874;2024-02-26T01:33:18;3.30;99.90
9450;DHT22;4763;48.370;10.874;2024-02-26T01:36:07;3.30;99.90
9450;DHT22;4763;48.370;10.874;2024-02-26T01:39:11;3.30;99.90
9450;DHT22;4763;48.370;10.874;2024-02-26T01:41:38;3.30;99.90
9450;DHT22;4763;48.370;10.874;2024-02-26T01:44:09;3.30;99.90
9450;DHT22;4763;48.370;10.874;2024-02-26T01:46:38;3.40;99.90
9450;DHT22;4763;48.370;10.874;2024-02-26T01:49:06;3.40;99.90
9450;DHT22;4763;48.370;10.874;2024-02-26T01:51:35;3.40;99.90
9450;DHT22;4763;48.370;10.874;2024-02-26T01:54:14;3.40;99.90
9450;DHT22;4763;48.370;10.874;2024-02-26T01:56:55;3.40;99.90
9450;DHT22;4763;48.370;10.874;2024-02-26T02:02:33;3.50;99.90
9450;DHT22;4763;48.370;10.874;2024-02-26T02:05:01;3.50;99.90
9450;DHT22;4763;48.370;10.874;2024-02-26T02:07:39;3.60;99.90
9450;DHT22;4763;48.370;10.874;2024-02-26T02:10:09;3.60;99.90
9450;DHT22;4763;48.370;10.874;2024-02-26T02:12:37;3.60;99.90
9450;DHT22;4763;48.370;10.874;2024-02-26T02:15:08;3.60;99.90
9450;DHT22;4763;48.370;10.874;2024-02-26T02:17:41;3.60;99.90
9450;DHT22;4763;48.370;10.874;2024-02-26T02:20:47;3.60;99.90
9450;DHT22;4763;48.370;10.874;2024-02-26T02:23:33;3.60;99.90
9450;DHT22;4763;48.370;10.874;2024-02-26T02:26:03;3.60;99.90
9450;DHT22;4763;48.370;10.874;2024-02-26T02:28:39;3.60;99.90
9450;DHT22;4763;48.370;10.874;2024-02-26T02:31:55;3.60;99.90
9450;DHT22;4763;48.370;10.874;2024-02-26T02:34:23;3.60;99.90
9450;DHT22;4763;48.370;10.874;2024-02-26T02:36:58;3.60;99.90
9450;DHT22;4763;48.370;10.874;2024-02-26T02:39:26;3.60;99.90
9450;DHT22;4763;48.370;10.874;2024-02-26T02:41:53;3.60;99.90
9450;DHT22;4763;48.370;10.874;2024-02-26T02:44:29;3.60;99.90
9450;DHT22;4763;48.370;10.874;2024-02-26T02:47:02;3.60;99.90
9450;DHT22;4763;48.370;10.874;2024-02-26T02:49:29;3.60;99.90
9450;DHT22;4763;48.370;10.874;2024-02-26T02:52:05;3.60;99.90
9450;DHT22;4763;48.370;10.874;2024-02-26T02:55:02;3.60;99.90
9450;DHT22;4763;48.370;10.874;2024-02-26T02:57:35;3.60;99.90
9450;DHT22;4763;48.370;10.874;2024-02-26T03:00:19;3.60;99.90
9450;DHT22;4763;48.370;10.874;2024-02-26T03:02:48;3.60;99.90
9450;DHT22;4763;48.370;10.874;2024-02-26T03:05:17;3.60;99.90
9450;DHT22;4763;48.370;10.874;2024-02-26T03:07:46;3.60;99.90
9450;DHT22;4763;48.370;10.874;2024-02-26T03:10:13;3.60;99.90
9450;DHT22;4763;48.370;10.874;2024-02-26T03:12:46;3.60;99.90
9450;DHT22;4763;48.370;10.874;2024-02-26T03:15:13;3.60;99.90
9450;DHT22;4763;48.370;10.874;2024-02-26T03:17:40;3.50;99.90
9450;DHT22;4763;48.370;10.874;2024-02-26T03:20:08;3.50;99.90
9450;DHT22;4763;48.370;10.874;2024-02-26T03:25:45;3.50;99.90
9450;DHT22;4763;48.370;10.874;2024-02-26T03:28:19;3.50;99.90
9450;DHT22;4763;48.370;10.874;2024-02-26T03:30:48;3.50;99.90
9450;DHT22;4763;48.370;10.874;2024-02-26T03:33:59;3.50;99.90
9450;DHT22;4763;48.370;10.874;2024-02-26T03:36:15;3.50;99.90
9450;DHT22;4763;48.370;10.874;2024-02-26T03:38:45;3.50;99.90
9450;DHT22;4763;48.370;10.874;2024-02-26T03:41:14;3.50;99.90
9450;DHT22;4763;48.370;10.874;2024-02-26T03:43:41;3.40;99.90
9450;DHT22;4763;48.370;10.874;2024-02-26T03:46:08;3.50;99.90
9450;DHT22;4763;48.370;10.874;2024-02-26T03:48:55;3.50;99.90
9450;DHT22;4763;48.370;10.874;2024-02-26T03:51:29;3.50;99.90
9450;DHT22;4763;48.370;10.874;2024-02-26T03:53:58;3.50;99.90
9450;DHT22;4763;48.370;10.874;2024-02-26T03:56:27;3.40;99.90
9450;DHT22;4763;48.370;10.874;2024-02-26T03:58:59;3.40;99.90
9450;DHT22;4763;48.370;10.874;2024-02-26T04:01:59;3.40;99.90
9450;DHT22;4763;48.370;10.874;2024-02-26T04:04:45;3.40;99.90
9450;DHT22;4763;48.370;10.874;2024-02-26T04:08:18;3.40;99.90
9450;DHT22;4763;48.370;10.874;2024-02-26T04:10:49;3.40;99.90
9450;DHT22;4763;48.370;10.874;2024-02-26T04:21:10;3.40;99.90
9450;DHT22;4763;48.370;10.874;2024-02-26T04:38:05;3.40;99.90
9450;DHT22;4763;48.370;10.874;2024-02-26T04:42:16;3.40;99.90
9450;DHT22;4763;48.370;10.874;2024-02-26T04:51:46;3.50;99.90
9450;DHT22;4763;48.370;10.874;2024-02-26T05:12:29;3.60;99.90
9450;DHT22;4763;48.370;10.874;2024-02-26T05:15:53;3.60;99.90
9450;DHT22;4763;48.370;10.874;2024-02-26T05:23:40;3.60;99.90
9450;DHT22;4763;48.370;10.874;2024-02-26T05:25:35;3.60;99.90
9450;DHT22;4763;48.370;10.874;2024-02-26T05:28:07;3.60;99.90
9450;DHT22;4763;48.370;10.874;2024-02-26T05:30:42;3.60;99.90
9450;DHT22;4763;48.370;10.874;2024-02-26T05:33:50;3.60;99.90
9450;DHT22;4763;48.370;10.874;2024-02-26T05:40:27;3.60;99.90
9450;DHT22;4763;48.370;10.874;2024-02-26T05:46:53;3.60;99.90
9450;DHT22;4763;48.370;10.874;2024-02-26T05:50:03;3.60;99.90
9450;DHT22;4763;48.370;10.874;2024-02-26T05:56:07;3.60;99.90
9450;DHT22;4763;48.370;10.874;2024-02-26T06:05:49;3.70;99.90
9450;DHT22;4763;48.370;10.874;2024-02-26T06:22:38;3.80;99.90
9450;DHT22;4763;48.370;10.874;2024-02-26T06:26:18;3.80;99.90
9450;DHT22;4763;48.370;10.874;2024-02-26T06:46:30;3.80;99.90
9450;DHT22;4763;48.370;10.874;2024-02-26T06:49:46;3.90;99.90
9450;DHT22;4763;48.370;10.874;2024-02-26T06:52:36;3.90;99.90
9450;DHT22;4763;48.370;10.874;2024-02-26T06:55:31;4.00;99.90
9450;DHT22;4763;48.370;10.874;2024-02-26T06:57:59;4.00;99.90
9450;DHT22;4763;48.370;10.874;2024-02-26T07:04:34;4.10;99.90
9450;DHT22;4763;48.370;10.874;2024-02-26T07:11:07;4.20;99.90
9450;DHT22;4763;48.370;10.874;2024-02-26T07:14:11;4.20;99.90
9450;DHT22;4763;48.370;10.874;2024-02-26T07:19:55;4.30;99.90
9450;DHT22;4763;48.370;10.874;2024-02-26T07:22:39;4.30;99.90
9450;DHT22;4763;48.370;10.874;2024-02-26T07:25:10;4.30;99.90
9450;DHT22;4763;48.370;10.874;2024-02-26T07:41:52;4.50;99.90
9450;DHT22;4763;48.370;10.874;2024-02-26T07:44:33;4.60;99.90
9450;DHT22;4763;48.370;10.874;2024-02-26T07:48:00;4.70;99.90
9450;DHT22;4763;48.370;10.874;2024-02-26T07:57:13;5.20;99.90
9450;DHT22;4763;48.370;10.874;2024-02-26T08:10:43;5.50;99.90
9450;DHT22;4763;48.370;10.874;2024-02-26T08:14:00;5.70;99.90
9450;DHT22;4763;48.370;10.874;2024-02-26T08:23:37;6.10;99.90
9450;DHT22;4763;48.370;10.874;2024-02-26T08:33:38;6.50;99.90
9450;DHT22;4763;48.370;10.874;2024-02-26T08:36:13;6.60;99.90
9450;DHT22;4763;48.370;10.874;2024-02-26T08:38:42;6.60;99.90
9450;DHT22;4763;48.370;10.874;2024-02-26T08:41:31;6.60;99.90
9450;DHT22;4763;48.370;10.874;2024-02-26T08:44:00;6.70;99.90
9450;DHT22;4763;48.370;10.874;2024-02-26T08:50:03;6.60;99.90
9450;DHT22;4763;48.370;10.874;2024-02-26T08:52:38;6.50;99.90
9450;DHT22;4763;48.370;10.874;2024-02-26T08:58:41;6.40;99.90
9450;DHT22;4763;48.370;10.874;2024-02-26T09:01:52;6.50;99.90
9450;DHT22;4763;48.370;10.874;2024-02-26T09:11:34;6.60;99.90
9450;DHT22;4763;48.370;10.874;2024-02-26T09:18:27;6.80;99.90
9450;DHT22;4763;48.370;10.874;2024-02-26T09:20:58;6.90;99.90
9450;DHT22;4763;48.370;10.874;2024-02-26T09:23:30;7.00;99.90
9450;DHT22;4763;48.370;10.874;2024-02-26T09:26:09;7.10;99.90
9450;DHT22;4763;48.370;10.874;2024-02-26T09:29:09;7.20;99.90
9450;DHT22;4763;48.370;10.874;2024-02-26T09:31:37;7.20;99.90
9450;DHT22;4763;48.370;10.874;2024-02-26T09:34:07;7.40;99.90
9450;DHT22;4763;48.370;10.874;2024-02-26T09:36:51;7.40;99.90
9450;DHT22;4763;48.370;10.874;2024-02-26T09:43:06;7.50;99.90
9450;DHT22;4763;48.370;10.874;2024-02-26T09:45:37;7.50;99.90
9450;DHT22;4763;48.370;10.874;2024-02-26T09:48:05;7.60;99.90
9450;DHT22;4763;48.370;10.874;2024-02-26T09:50:36;7.70;99.90
9450;DHT22;4763;48.370;10.874;2024-02-26T09:56:41;8.20;99.90
9450;DHT22;4763;48.370;10.874;2024-02-26T10:14:15;8.90;99.90
9450;DHT22;4763;48.370;10.874;2024-02-26T10:23:54;9.20;99.90
9450;DHT22;4763;48.370;10.874;2024-02-26T10:42:00;9.50;99.90
9450;DHT22;4763;48.370;10.874;2024-02-26T10:44:35;9.60;99.90
9450;DHT22;4763;48.370;10.874;2024-02-26T10:49:55;9.60;99.90
9450;DHT22;4763;48.370;10.874;2024-02-26T10:56:15;9.60;99.90
9450;DHT22;4763;48.370;10.874;2024-02-26T11:07:37;10.00;99.90
9450;DHT22;4763;48.370;10.874;2024-02-26T11:28:21;11.10;99.90
9450;DHT22;4763;48.370;10.874;2024-02-26T11:31:24;11.20;99.90
9450;DHT22;4763;48.370;10.874;2024-02-26T11:34:40;11.00;99.90
9450;DHT22;4763;48.370;10.874;2024-02-26T11:37:33;11.20;99.90
9450;DHT22;4763;48.370;10.874;2024-02-26T11:40:42;11.20;99.90
9450;DHT22;4763;48.370;10.874;2024-02-26T11:53:20;11.50;99.90
9450;DHT22;4763;48.370;10.874;2024-02-26T12:00:18;12.00;99.90
9450;DHT22;4763;48.370;10.874;2024-02-26T12:03:06;12.10;99.90
9450;DHT22;4763;48.370;10.874;2024-02-26T12:10:00;12.60;99.90
9450;DHT22;4763;48.370;10.874;2024-02-26T12:20:39;12.10;99.90
9450;DHT22;4763;48.370;10.874;2024-02-26T12:23:18;11.90;99.90
9450;DHT22;4763;48.370;10.874;2024-02-26T12:29:58;12.10;99.90
9450;DHT22;4763;48.370;10.874;2024-02-26T12:33:47;12.30;99.90
9450;DHT22;4763;48.370;10.874;2024-02-26T12:39:47;12.60;99.90
9450;DHT22;4763;48.370;10.874;2024-02-26T12:50:33;12.20;99.90
9450;DHT22;4763;48.370;10.874;2024-02-26T12:53:10;12.20;99.90
9450;DHT22;4763;48.370;10.874;2024-02-26T12:57:14;12.10;99.90
9450;DHT22;4763;48.370;10.874;2024-02-26T12:59:37;12.00;99.90
9450;DHT22;4763;48.370;10.874;2024-02-26T13:09:50;12.10;99.90
9450;DHT22;4763;48.370;10.874;2024-02-26T13:17:03;12.20;99.90
9450;DHT22;4763;48.370;10.874;2024-02-26T13:19:27;12.30;99.90
9450;DHT22;4763;48.370;10.874;2024-02-26T13:23:23;12.40;99.90
9450;DHT22;4763;48.370;10.874;2024-02-26T13:25:21;12.40;99.90
9450;DHT22;4763;48.370;10.874;2024-02-26T13:31:31;12.40;99.90
9450;DHT22;4763;48.370;10.874;2024-02-26T13:34:22;12.40;99.90
9450;DHT22;4763;48.370;10.874;2024-02-26T13:36:50;12.40;99.90
9450;DHT22;4763;48.370;10.874;2024-02-26T13:39:22;12.40;99.90
9450;DHT22;4763;48.370;10.874;2024-02-26T13:42:17;12.20;99.90
9450;DHT22;4763;48.370;10.874;2024-02-26T13:44:51;12.30;99.90
9450;DHT22;4763;48.370;10.874;2024-02-26T13:47:18;12.20;99.90
9450;DHT22;4763;48.370;10.874;2024-02-26T13:50:18;12.10;99.90
9450;DHT22;4763;48.370;10.874;2024-02-26T13:52:57;12.00;99.90
9450;DHT22;4763;48.370;10.874;2024-02-26T13:55:25;12.00;99.90
9450;DHT22;4763;48.370;10.874;2024-02-26T13:57:55;11.80;99.90
9450;DHT22;4763;48.370;10.874;2024-02-26T14:00:22;11.80;99.90
9450;DHT22;4763;48.370;10.874;2024-02-26T14:02:52;11.70;99.90
9450;DHT22;4763;48.370;10.874;2024-02-26T14:05:20;11.60;99.90
9450;DHT22;4763;48.370;10.874;2024-02-26T14:07:47;11.60;99.90
9450;DHT22;4763;48.370;10.874;2024-02-26T14:10:14;11.50;99.90
9450;DHT22;4763;48.370;10.874;2024-02-26T14:13:00;11.50;99.90
9450;DHT22;4763;48.370;10.874;2024-02-26T14:15:50;11.30;99.90
9450;DHT22;4763;48.370;10.874;2024-02-26T14:18:17;11.30;99.90
9450;DHT22;4763;48.370;10.874;2024-02-26T14:20:44;11.20;99.90
9450;DHT22;4763;48.370;10.874;2024-02-26T14:23:11;11.20;99.90
9450;DHT22;4763;48.370;10.874;2024-02-26T14:25:38;11.00;99.90
9450;DHT22;4763;48.370;10.874;2024-02-26T14:28:07;11.00;99.90
9450;DHT22;4763;48.370;10.874;2024-02-26T14:30:34;10.90;99.90
9450;DHT22;4763;48.370;10.874;2024-02-26T14:33:01;10.90;99.90
9450;DHT22;4763;48.370;10.874;2024-02-26T14:35:29;10.80;99.90
9450;DHT22;4763;48.370;10.874;2024-02-26T14:37:56;10.80;99.90
9450;DHT22;4763;48.370;10.874;2024-02-26T14:40:26;10.70;99.90
9450;DHT22;4763;48.370;10.874;2024-02-26T14:43:15;10.60;99.90
9450;DHT22;4763;48.370;10.874;2024-02-26T14:45:42;10.60;99.90
9450;DHT22;4763;48.370;10.874;2024-02-26T14:48:09;10.50;99.90
9450;DHT22;4763;48.370;10.874;2024-02-26T14:50:37;10.50;99.90
9450;DHT22;4763;48.370;10.874;2024-02-26T14:53:04;10.50;99.90
9450;DHT22;4763;48.370;10.874;2024-02-26T14:55:31;10.60;99.90
9450;DHT22;4763;48.370;10.874;2024-02-26T14:57:58;10.50;99.90
9450;DHT22;4763;48.370;10.874;2024-02-26T15:00:26;10.50;99.90
9450;DHT22;4763;48.370;10.874;2024-02-26T15:03:02;10.50;99.90
9450;DHT22;4763;48.370;10.874;2024-02-26T15:05:37;10.40;99.90
9450;DHT22;4763;48.370;10.874;2024-02-26T15:08:05;10.50;99.90
9450;DHT22;4763;48.370;10.874;2024-02-26T15:10:34;10.40;99.90
9450;DHT22;4763;48.370;10.874;2024-02-26T15:13:04;10.30;99.90
9450;DHT22;4763;48.370;10.874;2024-02-26T15:15:34;10.30;99.90
9450;DHT22;4763;48.370;10.874;2024-02-26T15:18:02;10.20;99.90
9450;DHT22;4763;48.370;10.874;2024-02-26T15:20:29;10.20;99.90
9450;DHT22;4763;48.370;10.874;2024-02-26T15:22:56;10.20;99.90
9450;DHT22;4763;48.370;10.874;2024-02-26T15:25:24;10.10;99.90
9450;DHT22;4763;48.370;10.874;2024-02-26T15:27:52;10.20;99.90
9450;DHT22;4763;48.370;10.874;2024-02-26T15:30:18;10.10;99.90
9450;DHT22;4763;48.370;10.874;2024-02-26T15:32:47;10.10;99.90
9450;DHT22;4763;48.370;10.874;2024-02-26T15:35:14;10.10;99.90
9450;DHT22;4763;48.370;10.874;2024-02-26T15:37:43;10.10;99.90
9450;DHT22;4763;48.370;10.874;2024-02-26T15:40:11;10.10;99.90
9450;DHT22;4763;48.370;10.874;2024-02-26T15:42:38;10.20;99.90
9450;DHT22;4763;48.370;10.874;2024-02-26T15:45:15;10.10;99.90
9450;DHT22;4763;48.370;10.874;2024-02-26T15:47:49;10.20;99.90
9450;DHT22;4763;48.370;10.874;2024-02-26T15:50:22;10.20;99.90
9450;DHT22;4763;48.370;10.874;2024-02-26T15:52:52;10.10;99.90
9450;DHT22;4763;48.370;10.874;2024-02-26T15:55:20;10.10;99.90
9450;DHT22;4763;48.370;10.874;2024-02-26T15:57:49;10.10;99.90
9450;DHT22;4763;48.370;10.874;2024-02-26T16:00:17;10.10;99.90
9450;DHT22;4763;48.370;10.874;2024-02-26T16:02:48;10.00;99.90
9450;DHT22;4763;48.370;10.874;2024-02-26T16:05:15;10.00;99.90
9450;DHT22;4763;48.370;10.874;2024-02-26T16:07:46;10.00;99.90
9450;DHT22;4763;48.370;10.874;2024-02-26T16:16:18;9.90;99.90
9450;DHT22;4763;48.370;10.874;2024-02-26T16:18:54;9.90;99.90
9450;DHT22;4763;48.370;10.874;2024-02-26T16:21:27;9.90;99.90
9450;DHT22;4763;48.370;10.874;2024-02-26T16:23:54;9.80;99.90
9450;DHT22;4763;48.370;10.874;2024-02-26T16:26:21;9.80;99.90
9450;DHT22;4763;48.370;10.874;2024-02-26T16:28:48;9.80;99.90
9450;DHT22;4763;48.370;10.874;2024-02-26T16:31:21;9.70;99.90
9450;DHT22;4763;48.370;10.874;2024-02-26T16:36:27;9.60;99.90
9450;DHT22;4763;48.370;10.874;2024-02-26T16:38:54;9.60;99.90
9450;DHT22;4763;48.370;10.874;2024-02-26T16:41:20;9.60;99.90
9450;DHT22;4763;48.370;10.874;2024-02-26T16:43:47;9.60;99.90
9450;DHT22;4763;48.370;10.874;2024-02-26T16:46:15;9.60;99.90
9450;DHT22;4763;48.370;10.874;2024-02-26T16:48:44;9.50;99.90
9450;DHT22;4763;48.370;10.874;2024-02-26T16:51:31;9.50;99.90
9450;DHT22;4763;48.370;10.874;2024-02-26T16:54:14;9.40;99.90
9450;DHT22;4763;48.370;10.874;2024-02-26T16:56:58;9.40;99.90
9450;DHT22;4763;48.370;10.874;2024-02-26T16:59:26;9.40;99.90
9450;DHT22;4763;48.370;10.874;2024-02-26T17:02:23;9.30;99.90
9450;DHT22;4763;48.370;10.874;2024-02-26T17:04:50;9.30;99.90
9450;DHT22;4763;48.370;10.874;2024-02-26T17:11:14;9.30;99.90
9450;DHT22;4763;48.370;10.874;2024-02-26T17:13:41;9.30;99.90
9450;DHT22;4763;48.370;10.874;2024-02-26T17:16:23;9.20;99.90
9450;DHT22;4763;48.370;10.874;2024-02-26T17:19:09;9.20;99.90
9450;DHT22;4763;48.370;10.874;2024-02-26T17:21:56;9.20;99.90
9450;DHT22;4763;48.370;10.874;2024-02-26T17:24:29;9.10;99.90
9450;DHT22;4763;48.370;10.874;2024-02-26T17:27:06;9.10;99.90
9450;DHT22;4763;48.370;10.874;2024-02-26T17:29:33;9.10;99.90
9450;DHT22;4763;48.370;10.874;2024-02-26T17:32:03;9.10;99.90
9450;DHT22;4763;48.370;10.874;2024-02-26T17:34:39;9.10;99.90
9450;DHT22;4763;48.370;10.874;2024-02-26T17:37:41;9.00;99.90
9450;DHT22;4763;48.370;10.874;2024-02-26T17:40:09;9.00;99.90
9450;DHT22;4763;48.370;10.874;2024-02-26T17:43:00;9.00;99.90
9450;DHT22;4763;48.370;10.874;2024-02-26T17:51:41;8.90;99.90
9450;DHT22;4763;48.370;10.874;2024-02-26T17:54:08;8.90;99.90
9450;DHT22;4763;48.370;10.874;2024-02-26T17:56:52;8.90;99.90
9450;DHT22;4763;48.370;10.874;2024-02-26T18:03:24;8.90;99.90
9450;DHT22;4763;48.370;10.874;2024-02-26T18:05:50;8.90;99.90
9450;DHT22;4763;48.370;10.874;2024-02-26T18:08:17;8.90;99.90
9450;DHT22;4763;48.370;10.874;2024-02-26T18:10:47;8.90;99.90
9450;DHT22;4763;48.370;10.874;2024-02-26T18:13:14;8.90;99.90
9450;DHT22;4763;48.370;10.874;2024-02-26T18:15:45;8.90;99.90
9450;DHT22;4763;48.370;10.874;2024-02-26T18:18:15;8.90;99.90
9450;DHT22;4763;48.370;10.874;2024-02-26T18:20:43;8.80;99.90
9450;DHT22;4763;48.370;10.874;2024-02-26T18:23:24;8.90;99.90
9450;DHT22;4763;48.370;10.874;2024-02-26T18:26:00;8.90;99.90
9450;DHT22;4763;48.370;10.874;2024-02-26T18:28:30;8.80;99.90
9450;DHT22;4763;48.370;10.874;2024-02-26T18:31:04;8.90;99.90
9450;DHT22;4763;48.370;10.874;2024-02-26T18:33:32;8.90;99.90
9450;DHT22;4763;48.370;10.874;2024-02-26T18:39:15;8.80;99.90
9450;DHT22;4763;48.370;10.874;2024-02-26T18:41:42;8.70;99.90
9450;DHT22;4763;48.370;10.874;2024-02-26T18:44:09;8.70;99.90
9450;DHT22;4763;48.370;10.874;2024-02-26T18:46:43;8.70;99.90
9450;DHT22;4763;48.370;10.874;2024-02-26T18:49:11;8.50;99.90
9450;DHT22;4763;48.370;10.874;2024-02-26T18:51:38;8.40;99.90
9450;DHT22;4763;48.370;10.874;2024-02-26T18:54:05;8.40;99.90
9450;DHT22;4763;48.370;10.874;2024-02-26T18:56:53;8.40;99.90
9450;DHT22;4763;48.370;10.874;2024-02-26T18:59:21;8.30;99.90
9450;DHT22;4763;48.370;10.874;2024-02-26T19:01:49;8.30;99.90
9450;DHT22;4763;48.370;10.874;2024-02-26T19:04:16;8.20;99.90
9450;DHT22;4763;48.370;10.874;2024-02-26T19:06:44;8.10;99.90
9450;DHT22;4763;48.370;10.874;2024-02-26T19:09:13;8.10;99.90
9450;DHT22;4763;48.370;10.874;2024-02-26T19:14:31;8.10;99.90
9450;DHT22;4763;48.370;10.874;2024-02-26T19:16:59;8.10;99.90
9450;DHT22;4763;48.370;10.874;2024-02-26T19:19:26;8.10;99.90
9450;DHT22;4763;48.370;10.874;2024-02-26T19:22:03;8.10;99.90
9450;DHT22;4763;48.370;10.874;2024-02-26T19:24:31;8.10;99.90
9450;DHT22;4763;48.370;10.874;2024-02-26T19:26:58;8.00;99.90
9450;DHT22;4763;48.370;10.874;2024-02-26T19:29:25;8.00;99.90
9450;DHT22;4763;48.370;10.874;2024-02-26T19:31:54;7.90;99.90
9450;DHT22;4763;48.370;10.874;2024-02-26T19:34:23;7.90;99.90
9450;DHT22;4763;48.370;10.874;2024-02-26T19:36:49;7.80;99.90
9450;DHT22;4763;48.370;10.874;2024-02-26T19:39:16;7.80;99.90
9450;DHT22;4763;48.370;10.874;2024-02-26T19:41:58;7.70;99.90
9450;DHT22;4763;48.370;10.874;2024-02-26T19:44:25;7.70;99.90
9450;DHT22;4763;48.370;10.874;2024-02-26T19:46:52;7.70;99.90
9450;DHT22;4763;48.370;10.874;2024-02-26T19:49:43;7.70;99.90
9450;DHT22;4763;48.370;10.874;2024-02-26T19:52:10;7.70;99.90
9450;DHT22;4763;48.370;10.874;2024-02-26T19:54:37;7.70;99.90
9450;DHT22;4763;48.370;10.874;2024-02-26T19:57:04;7.70;99.90
9450;DHT22;4763;48.370;10.874;2024-02-26T20:30:09;7.10;99.90
9450;DHT22;4763;48.370;10.874;2024-02-26T20:32:36;7.10;99.90
9450;DHT22;4763;48.370;10.874;2024-02-26T20:35:06;7.00;99.90
9450;DHT22;4763;48.370;10.874;2024-02-26T20:37:52;7.00;99.90
9450;DHT22;4763;48.370;10.874;2024-02-26T20:40:19;6.90;99.90
9450;DHT22;4763;48.370;10.874;2024-02-26T20:42:46;6.80;99.90
9450;DHT22;4763;48.370;10.874;2024-02-26T20:49:15;6.70;99.90
9450;DHT22;4763;48.370;10.874;2024-02-26T20:51:43;6.70;99.90
9450;DHT22;4763;48.370;10.874;2024-02-26T20:54:10;6.60;99.90
9450;DHT22;4763;48.370;10.874;2024-02-26T20:56:44;6.60;99.90
9450;DHT22;4763;48.370;10.874;2024-02-26T20:59:31;6.60;99.90
9450;DHT22;4763;48.370;10.874;2024-02-26T21:02:02;6.50;99.90
9450;DHT22;4763;48.370;10.874;2024-02-26T21:04:36;6.50;99.90
9450;DHT22;4763;48.370;10.874;2024-02-26T21:07:07;6.50;99.90
9450;DHT22;4763;48.370;10.874;2024-02-26T21:09:34;6.40;99.90
9450;DHT22;4763;48.370;10.874;2024-02-26T21:12:37;6.40;99.90
9450;DHT22;4763;48.370;10.874;2024-02-26T21:18:00;6.30;99.90
9450;DHT22;4763;48.370;10.874;2024-02-26T21:20:46;6.30;99.90
9450;DHT22;4763;48.370;10.874;2024-02-26T21:23:24;6.20;99.90
9450;DHT22;4763;48.370;10.874;2024-02-26T21:25:51;6.10;99.90
9450;DHT22;4763;48.370;10.874;2024-02-26T21:28:21;6.10;99.90
9450;DHT22;4763;48.370;10.874;2024-02-26T21:30:48;6.00;99.90
9450;DHT22;4763;48.370;10.874;2024-02-26T21:33:21;6.00;99.90
9450;DHT22;4763;48.370;10.874;2024-02-26T21:35:49;5.90;99.90
9450;DHT22;4763;48.370;10.874;2024-02-26T21:38:17;5.90;99.90
9450;DHT22;4763;48.370;10.874;2024-02-26T21:40:45;5.90;99.90
9450;DHT22;4763;48.370;10.874;2024-02-26T21:43:15;5.90;99.90
9450;DHT22;4763;48.370;10.874;2024-02-26T21:45:43;5.80;99.90
9450;DHT22;4763;48.370;10.874;2024-02-26T21:48:10;5.80;99.90
9450;DHT22;4763;48.370;10.874;2024-02-26T21:50:37;5.80;99.90
9450;DHT22;4763;48.370;10.874;2024-02-26T21:53:06;5.80;99.90
9450;DHT22;4763;48.370;10.874;2024-02-26T21:55:38;5.70;99.90
9450;DHT22;4763;48.370;10.874;2024-02-26T21:58:16;5.70;99.90
9450;DHT22;4763;48.370;10.874;2024-02-26T22:01:16;5.70;99.90
9450;DHT22;4763;48.370;10.874;2024-02-26T22:04:05;5.70;99.90
9450;DHT22;4763;48.370;10.874;2024-02-26T22:06:46;5.60;99.90
9450;DHT22;4763;48.370;10.874;2024-02-26T22:09:15;5.70;99.90
9450;DHT22;4763;48.370;10.874;2024-02-26T22:11:42;5.60;99.90
9450;DHT22;4763;48.370;10.874;2024-02-26T22:14:15;5.60;99.90
9450;DHT22;4763;48.370;10.874;2024-02-26T22:16:45;5.60;99.90
9450;DHT22;4763;48.370;10.874;2024-02-26T22:19:13;5.60;99.90
9450;DHT22;4763;48.370;10.874;2024-02-26T22:25:11;5.60;99.90
9450;DHT22;4763;48.370;10.874;2024-02-26T22:27:42;5.60;99.90
9450;DHT22;4763;48.370;10.874;2024-02-26T22:30:11;5.50;99.90
9450;DHT22;4763;48.370;10.874;2024-02-26T22:32:38;5.50;99.90
9450;DHT22;4763;48.370;10.874;2024-02-26T22:35:06;5.50;99.90
9450;DHT22;4763;48.370;10.874;2024-02-26T22:37:33;5.50;99.90
9450;DHT22;4763;48.370;10.874;2024-02-26T22:40:07;5.50;99.90
9450;DHT22;4763;48.370;10.874;2024-02-26T22:42:36;5.50;99.90
9450;DHT22;4763;48.370;10.874;2024-02-26T22:45:07;5.50;99.90
9450;DHT22;4763;48.370;10.874;2024-02-26T22:47:37;5.40;99.90
9450;DHT22;4763;48.370;10.874;2024-02-26T22:50:05;5.50;99.90
9450;DHT22;4763;48.370;10.874;2024-02-26T22:52:34;5.50;99.90
9450;DHT22;4763;48.370;10.874;2024-02-26T22:55:01;5.50;99.90
9450;DHT22;4763;48.370;10.874;2024-02-26T22:57:28;5.50;99.90
9450;DHT22;4763;48.370;10.874;2024-02-26T23:00:01;5.40;99.90
9450;DHT22;4763;48.370;10.874;2024-02-26T23:02:50;5.50;99.90
9450;DHT22;4763;48.370;10.874;2024-02-26T23:05:56;5.50;99.90
9450;DHT22;4763;48.370;10.874;2024-02-26T23:08:25;5.50;99.90
9450;DHT22;4763;48.370;10.874;2024-02-26T23:10:52;5.50;99.90
9450;DHT22;4763;48.370;10.874;2024-02-26T23:13:19;5.50;99.90
9450;DHT22;4763;48.370;10.874;2024-02-26T23:16:23;5.50;99.90
9450;DHT22;4763;48.370;10.874;2024-02-26T23:18:53;5.50;99.90
9450;DHT22;4763;48.370;10.874;2024-02-26T23:21:27;5.40;99.90
9450;DHT22;4763;48.370;10.874;2024-02-26T23:23:54;5.40;99.90
9450;DHT22;4763;48.370;10.874;2024-02-26T23:26:24;5.40;99.90
9450;DHT22;4763;48.370;10.874;2024-02-26T23:28:52;5.40;99.90
9450;DHT22;4763;48.370;10.874;2024-02-26T23:32:06;5.40;99.90